createdAt,value
2022-08-26T00:01:19.120Z,85.13
2022-08-26T00:03:56.475Z,85.39
2022-08-26T00:06:23.667Z,85.37
2022-08-26T00:08:50.656Z,85.16
2022-08-26T00:11:26.535Z,85.00
2022-08-26T00:13:58.336Z,85.17
2022-08-26T00:16:25.904Z,85.35
2022-08-26T00:18:53.173Z,85.73
2022-08-26T00:21:20.748Z,86.77
2022-08-26T00:23:48.223Z,86.58
2022-08-26T00:26:15.592Z,86.57
2022-08-26T00:28:42.457Z,86.48
2022-08-26T00:31:10.795Z,86.45
2022-08-26T00:33:39.441Z,86.24
2022-08-26T00:36:07.266Z,86.43
2022-08-26T00:38:35.542Z,86.47
2022-08-26T00:41:05.743Z,86.06
2022-08-26T00:43:47.719Z,85.98
2022-08-26T00:46:21.672Z,86.30
2022-08-26T00:48:53.767Z,86.36
2022-08-26T00:51:24.655Z,86.12
2022-08-26T00:54:06.914Z,85.95
2022-08-26T00:56:53.809Z,86.07
2022-08-26T00:59:21.127Z,86.79
2022-08-26T01:01:48.290Z,87.06
2022-08-26T01:04:22.548Z,87.17
2022-08-26T01:06:53.485Z,87.05
2022-08-26T01:09:22.332Z,86.80
2022-08-26T01:11:51.323Z,87.11
2022-08-26T01:14:20.749Z,86.96
2022-08-26T01:16:48.261Z,86.89
2022-08-26T01:19:25.087Z,87.45
2022-08-26T01:21:59.337Z,87.49
2022-08-26T01:24:28.973Z,87.28
2022-08-26T01:27:03.392Z,87.39
2022-08-26T01:29:33.806Z,87.18
2022-08-26T01:32:00.883Z,87.54
2022-08-26T01:34:37.422Z,87.85
2022-08-26T01:37:15.906Z,87.96
2022-08-26T01:39:44.992Z,88.15
2022-08-26T01:42:15.054Z,88.25
2022-08-26T01:44:59.435Z,88.27
2022-08-26T01:47:30.100Z,88.40
2022-08-26T01:49:59.715Z,88.57
2022-08-26T01:52:28.750Z,88.57
2022-08-26T01:54:57.047Z,88.79
2022-08-26T01:57:25.247Z,88.85
2022-08-26T01:59:55.569Z,89.10
2022-08-26T02:02:23.273Z,88.94
2022-08-26T02:04:56.610Z,89.36
2022-08-26T02:07:24.378Z,89.56
2022-08-26T02:09:54.086Z,89.29
2022-08-26T02:12:21.202Z,89.33
2022-08-26T02:14:55.220Z,89.33
2022-08-26T02:17:26.171Z,89.31
2022-08-26T02:19:53.569Z,89.15
2022-08-26T02:22:24.692Z,89.13
2022-08-26T02:24:51.391Z,89.25
2022-08-26T02:27:24.448Z,89.63
2022-08-26T02:30:04.540Z,89.59
2022-08-26T02:32:32.154Z,89.60
2022-08-26T02:34:58.843Z,89.87
2022-08-26T02:37:29.603Z,89.83
2022-08-26T02:39:56.595Z,89.60
2022-08-26T02:42:24.022Z,89.48
2022-08-26T02:44:51.927Z,89.99
2022-08-26T02:47:18.785Z,89.83
2022-08-26T02:49:47.392Z,89.95
2022-08-26T02:52:14.558Z,89.89
2022-08-26T02:54:41.366Z,89.83
2022-08-26T02:57:08.537Z,89.53
2022-08-26T02:59:36.014Z,89.57
2022-08-26T03:02:03.239Z,89.83
2022-08-26T03:04:30.943Z,89.69
2022-08-26T03:07:00.341Z,89.69
2022-08-26T03:09:27.931Z,89.60
2022-08-26T03:11:55.586Z,89.66
2022-08-26T03:14:23.977Z,89.79
2022-08-26T03:16:53.927Z,89.89
2022-08-26T03:19:22.829Z,90.14
2022-08-26T03:21:49.854Z,90.64
2022-08-26T03:24:17.535Z,90.52
2022-08-26T03:26:52.535Z,90.66
2022-08-26T03:29:39.229Z,90.66
2022-08-26T03:32:06.225Z,90.64
2022-08-26T03:34:33.570Z,90.62
2022-08-26T03:37:00.571Z,90.75
2022-08-26T03:39:27.699Z,90.73
2022-08-26T03:41:58.836Z,90.57
2022-08-26T03:44:26.711Z,90.50
2022-08-26T03:46:54.556Z,90.73
2022-08-26T03:49:22.121Z,91.30
2022-08-26T03:51:48.893Z,91.53
2022-08-26T03:54:17.539Z,91.37
2022-08-26T03:56:44.263Z,91.28
2022-08-26T03:59:13.703Z,91.60
2022-08-26T04:01:40.868Z,91.53
2022-08-26T04:04:07.775Z,91.36
2022-08-26T04:06:37.884Z,91.02
2022-08-26T04:09:08.036Z,91.24
2022-08-26T04:11:38.306Z,91.34
2022-08-26T04:14:10.377Z,91.22
2022-08-26T04:16:37.543Z,91.50
2022-08-26T04:19:06.546Z,91.67
2022-08-26T04:21:34.512Z,91.69
2022-08-26T04:24:03.521Z,91.60
2022-08-26T04:26:36.966Z,91.80
2022-08-26T04:29:09.809Z,91.58
2022-08-26T04:31:37.816Z,91.63
2022-08-26T04:34:06.259Z,91.72
2022-08-26T04:36:33.021Z,91.77
2022-08-26T04:39:02.092Z,91.92
2022-08-26T04:41:29.747Z,91.74
2022-08-26T04:43:58.468Z,91.85
2022-08-26T04:46:25.894Z,91.87
2022-08-26T04:48:54.046Z,91.81
2022-08-26T04:51:27.327Z,91.53
2022-08-26T04:53:56.986Z,91.42
2022-08-26T04:56:29.932Z,91.73
2022-08-26T04:58:56.963Z,91.86
2022-08-26T05:01:24.018Z,91.54
2022-08-26T05:03:51.204Z,91.61
2022-08-26T05:06:19.963Z,92.01
2022-08-26T05:08:47.838Z,91.90
2022-08-26T05:11:16.408Z,91.47
2022-08-26T05:13:43.302Z,91.66
2022-08-26T05:16:13.036Z,91.38
2022-08-26T05:18:41.140Z,91.28
2022-08-26T05:21:18.556Z,91.26
2022-08-26T05:23:46.192Z,91.59
2022-08-26T05:26:12.986Z,91.50
2022-08-26T05:28:43.425Z,91.49
2022-08-26T05:31:16.341Z,91.47
2022-08-26T05:33:45.339Z,91.21
2022-08-26T05:36:15.229Z,90.98
2022-08-26T05:38:43.988Z,90.70
2022-08-26T05:41:21.665Z,90.49
2022-08-26T05:43:48.614Z,90.40
2022-08-26T05:46:15.754Z,90.12
2022-08-26T05:48:44.341Z,90.31
2022-08-26T05:51:12.243Z,90.06
2022-08-26T05:53:40.698Z,89.86
2022-08-26T05:56:12.261Z,89.63
2022-08-26T05:58:40.907Z,89.49
2022-08-26T06:01:17.660Z,89.21
2022-08-26T06:03:46.759Z,89.29
2022-08-26T06:06:27.569Z,89.05
2022-08-26T06:08:59.393Z,89.16
2022-08-26T06:11:27.855Z,89.09
2022-08-26T06:14:01.217Z,89.03
2022-08-26T06:16:31.224Z,88.96
2022-08-26T06:18:57.976Z,89.20
2022-08-26T06:21:30.585Z,88.84
2022-08-26T06:24:19.344Z,88.61
2022-08-26T06:26:55.198Z,88.50
2022-08-26T06:29:25.946Z,88.12
2022-08-26T06:31:54.317Z,87.83
2022-08-26T06:34:23.819Z,87.86
2022-08-26T06:36:58.591Z,87.70
2022-08-26T06:39:25.687Z,87.51
2022-08-26T06:41:52.929Z,87.07
2022-08-26T06:44:21.013Z,86.70
2022-08-26T06:46:50.412Z,86.51
2022-08-26T06:49:18.293Z,86.00
2022-08-26T06:51:52.635Z,86.06
2022-08-26T06:54:19.420Z,85.74
2022-08-26T06:56:46.352Z,85.82
2022-08-26T06:59:16.175Z,85.47
2022-08-26T07:01:45.056Z,85.45
2022-08-26T07:04:15.528Z,85.19
2022-08-26T07:06:49.399Z,84.71
2022-08-26T07:09:17.387Z,85.04
2022-08-26T07:11:44.826Z,85.19
2022-08-26T07:14:12.426Z,84.81
2022-08-26T07:16:41.198Z,84.55
2022-08-26T07:19:11.280Z,84.64
2022-08-26T07:21:40.098Z,83.99
2022-08-26T07:24:07.483Z,83.94
2022-08-26T07:26:34.842Z,83.76
2022-08-26T07:29:02.538Z,83.79
2022-08-26T07:31:39.556Z,83.26
2022-08-26T07:34:10.616Z,82.93
2022-08-26T07:36:37.643Z,82.67
2022-08-26T07:39:06.551Z,82.75
2022-08-26T07:41:33.771Z,82.22
2022-08-26T07:44:01.134Z,82.03
2022-08-26T07:46:30.253Z,81.41
2022-08-26T07:48:58.328Z,81.39
2022-08-26T07:51:26.340Z,81.31
2022-08-26T07:53:54.552Z,80.62
2022-08-26T07:56:23.230Z,80.78
2022-08-26T07:58:54.134Z,80.75
2022-08-26T08:01:23.983Z,80.59
2022-08-26T08:03:51.907Z,80.17
2022-08-26T08:06:27.019Z,80.09
2022-08-26T08:08:54.477Z,79.88
2022-08-26T08:11:21.954Z,79.72
2022-08-26T08:13:56.463Z,79.52
2022-08-26T08:16:32.246Z,78.85
2022-08-26T08:19:00.440Z,78.61
2022-08-26T08:21:27.879Z,77.58
2022-08-26T08:23:57.450Z,77.07
2022-08-26T08:26:26.065Z,76.20
2022-08-26T08:28:57.088Z,75.99
2022-08-26T08:31:56.069Z,74.92
2022-08-26T08:34:15.312Z,74.33
2022-08-26T08:36:42.037Z,74.87
2022-08-26T08:39:09.621Z,74.25
2022-08-26T08:41:48.433Z,73.73
2022-08-26T08:44:21.038Z,73.16
2022-08-26T08:46:59.700Z,73.80
2022-08-26T08:49:28.393Z,73.33
2022-08-26T08:52:10.764Z,73.77
2022-08-26T08:54:38.536Z,73.66
2022-08-26T08:57:17.906Z,73.17
2022-08-26T09:00:30.663Z,72.13
2022-08-26T09:03:03.657Z,72.01
2022-08-26T09:05:43.391Z,70.68
2022-08-26T09:08:19.911Z,67.78
2022-08-26T09:11:04.880Z,67.06
2022-08-26T09:13:34.248Z,67.00
2022-08-26T09:16:10.381Z,66.86
2022-08-26T09:18:56.267Z,64.97
2022-08-26T09:21:25.166Z,63.80
2022-08-26T09:23:55.811Z,63.50
2022-08-26T09:26:30.620Z,62.21
2022-08-26T09:29:04.278Z,61.09
2022-08-26T09:31:34.209Z,61.10
2022-08-26T09:34:17.386Z,60.79
2022-08-26T09:36:53.669Z,60.26
2022-08-26T09:39:23.944Z,59.43
2022-08-26T09:42:25.530Z,61.05
2022-08-26T09:44:55.776Z,57.64
2022-08-26T09:47:41.382Z,58.08
2022-08-26T09:50:33.680Z,57.93
2022-08-26T09:53:14.544Z,57.81
2022-08-26T09:55:43.957Z,60.46
2022-08-26T09:58:37.953Z,60.56
2022-08-26T10:01:07.899Z,59.58
2022-08-26T10:03:38.131Z,61.18
2022-08-26T10:06:20.930Z,61.26
2022-08-26T10:08:54.185Z,61.61
2022-08-26T10:11:24.226Z,61.38
2022-08-26T10:14:02.875Z,61.21
2022-08-26T10:16:46.916Z,63.21
2022-08-26T10:19:19.168Z,64.66
2022-08-26T10:21:54.245Z,64.26
2022-08-26T10:24:31.413Z,64.15
2022-08-26T10:27:07.897Z,64.16
2022-08-26T10:29:45.802Z,64.79
2022-08-26T10:32:25.878Z,63.82
2022-08-26T10:34:54.724Z,63.55
2022-08-26T10:37:26.830Z,61.57
2022-08-26T10:40:00.615Z,61.41
2022-08-26T10:42:35.200Z,61.18
2022-08-26T10:45:11.667Z,58.20
2022-08-26T10:47:49.275Z,56.13
2022-08-26T10:50:18.189Z,54.10
2022-08-26T10:53:01.141Z,51.90
2022-08-26T10:55:55.207Z,50.68
2022-08-26T10:58:48.163Z,51.61
2022-08-26T11:01:40.943Z,50.98
2022-08-26T11:04:24.685Z,52.30
2022-08-26T11:07:29.908Z,52.62
2022-08-26T11:10:01.218Z,54.26
2022-08-26T11:13:01.602Z,54.25
2022-08-26T11:15:29.424Z,54.62
2022-08-26T11:18:03.432Z,53.70
2022-08-26T11:20:31.082Z,54.90
2022-08-26T11:23:20.676Z,55.67
2022-08-26T11:26:09.991Z,55.37
2022-08-26T11:28:45.295Z,56.31
2022-08-26T11:31:37.797Z,55.55
2022-08-26T11:34:08.734Z,56.12
2022-08-26T11:36:56.139Z,56.56
2022-08-26T11:39:28.642Z,57.01
2022-08-26T11:42:20.222Z,56.83
2022-08-26T11:44:48.702Z,58.02
2022-08-26T11:47:24.886Z,57.13
2022-08-26T11:50:34.367Z,56.79
2022-08-26T11:53:06.131Z,56.93
2022-08-26T11:55:41.912Z,55.81
2022-08-26T11:58:12.525Z,57.93
2022-08-26T12:00:54.442Z,57.74
2022-08-26T12:03:25.944Z,56.71
2022-08-26T12:05:54.133Z,57.03
2022-08-26T12:08:27.932Z,57.91
2022-08-26T12:11:09.429Z,58.62
2022-08-26T12:13:38.978Z,58.66
2022-08-26T12:16:06.964Z,58.70
2022-08-26T12:18:37.648Z,59.29
2022-08-26T12:21:20.213Z,59.16
2022-08-26T12:24:06.968Z,58.60
2022-08-26T12:26:36.742Z,59.63
2022-08-26T12:29:27.094Z,57.29
2022-08-26T12:32:17.679Z,55.13
2022-08-26T12:34:47.160Z,54.84
2022-08-26T12:37:15.542Z,52.78
2022-08-26T12:39:44.689Z,52.30
2022-08-26T12:42:17.253Z,51.19
2022-08-26T12:44:53.158Z,49.53
2022-08-26T12:47:32.718Z,51.26
2022-08-26T12:50:22.885Z,51.23
2022-08-26T12:53:04.027Z,51.88
2022-08-26T12:55:50.285Z,50.45
2022-08-26T12:58:33.330Z,48.58
2022-08-26T13:01:09.217Z,51.29
2022-08-26T13:03:45.419Z,52.38
2022-08-26T13:06:16.331Z,54.62
2022-08-26T13:08:54.032Z,55.51
2022-08-26T13:11:28.863Z,55.52
2022-08-26T13:14:06.910Z,56.72
2022-08-26T13:16:35.730Z,58.79
2022-08-26T13:19:10.071Z,59.33
2022-08-26T13:21:42.903Z,57.16
2022-08-26T13:24:14.018Z,59.18
2022-08-26T13:26:43.361Z,60.44
2022-08-26T13:29:11.047Z,59.71
2022-08-26T13:31:41.072Z,60.54
2022-08-26T13:34:10.884Z,60.79
2022-08-26T13:36:37.883Z,61.39
2022-08-26T13:39:06.291Z,64.27
2022-08-26T13:41:33.010Z,67.02
2022-08-26T13:43:59.768Z,68.01
2022-08-26T13:46:28.283Z,69.38
2022-08-26T13:48:56.881Z,69.02
2022-08-26T13:51:24.652Z,69.72
2022-08-26T13:53:51.967Z,70.26
2022-08-26T13:56:19.749Z,71.10
2022-08-26T13:58:47.668Z,71.22
2022-08-26T14:01:16.985Z,72.33
2022-08-26T14:03:44.518Z,71.74
2022-08-26T14:06:11.342Z,72.23
2022-08-26T14:08:39.436Z,74.85
2022-08-26T14:11:06.308Z,76.55
2022-08-26T14:13:33.439Z,76.04
2022-08-26T14:16:02.376Z,77.44
2022-08-26T14:18:36.355Z,77.25
2022-08-26T14:21:07.780Z,77.94
2022-08-26T14:23:34.884Z,78.11
2022-08-26T14:26:03.911Z,78.84
2022-08-26T14:28:30.692Z,79.00
2022-08-26T14:30:58.314Z,78.79
2022-08-26T14:33:28.604Z,79.44
2022-08-26T14:36:17.975Z,80.46
2022-08-26T14:38:45.864Z,80.72
2022-08-26T14:41:13.957Z,80.92
2022-08-26T14:43:45.668Z,80.86
2022-08-26T14:46:14.181Z,81.89
2022-08-26T14:48:41.047Z,81.67
2022-08-26T14:51:07.856Z,81.70
2022-08-26T14:53:53.257Z,82.48
2022-08-26T14:56:20.363Z,82.33
2022-08-26T14:58:47.527Z,82.23
2022-08-26T15:01:15.069Z,82.72
2022-08-26T15:03:42.593Z,82.70
2022-08-26T15:06:10.999Z,82.71
2022-08-26T15:08:38.161Z,81.76
2022-08-26T15:11:05.123Z,83.18
2022-08-26T15:13:32.415Z,83.45
2022-08-26T15:15:59.266Z,83.72
2022-08-26T15:18:26.060Z,84.14
2022-08-26T15:20:52.849Z,83.94
2022-08-26T15:23:19.648Z,84.07
2022-08-26T15:25:48.280Z,84.29
2022-08-26T15:28:15.137Z,84.48
2022-08-26T15:30:43.026Z,84.52
2022-08-26T15:33:15.039Z,84.65
2022-08-26T15:35:43.004Z,84.36
2022-08-26T15:38:10.975Z,85.07
2022-08-26T15:40:38.254Z,84.46
2022-08-26T15:43:18.595Z,84.49
2022-08-26T15:45:52.791Z,83.61
2022-08-26T15:48:19.918Z,84.40
2022-08-26T15:50:55.993Z,84.33
2022-08-26T15:53:23.919Z,84.44
2022-08-26T15:55:54.658Z,85.78
2022-08-26T15:58:24.729Z,85.34
2022-08-26T16:00:54.902Z,85.72
2022-08-26T16:03:21.786Z,85.92
2022-08-26T16:05:48.664Z,86.09
2022-08-26T16:08:16.033Z,85.76
2022-08-26T16:10:50.080Z,85.96
2022-08-26T16:13:19.797Z,86.00
2022-08-26T16:15:47.983Z,85.77
2022-08-26T16:18:16.156Z,85.61
2022-08-26T16:21:02.721Z,85.80
2022-08-26T16:23:39.195Z,86.05
2022-08-26T16:26:10.605Z,86.23
2022-08-26T16:28:38.259Z,86.33
2022-08-26T16:31:06.480Z,86.51
2022-08-26T16:33:33.489Z,86.25
2022-08-26T16:36:00.285Z,86.51
2022-08-26T16:38:27.074Z,86.86
2022-08-26T16:40:53.773Z,87.37
2022-08-26T16:43:20.554Z,87.28
2022-08-26T16:45:47.387Z,87.13
2022-08-26T16:48:14.110Z,86.99
2022-08-26T16:50:41.878Z,87.27
2022-08-26T16:53:15.999Z,87.22
2022-08-26T16:55:50.320Z,86.90
2022-08-26T16:58:18.596Z,86.54
2022-08-26T17:00:46.023Z,86.63
2022-08-26T17:03:13.080Z,86.88
2022-08-26T17:05:40.283Z,87.06
2022-08-26T17:08:07.173Z,87.26
2022-08-26T17:10:34.665Z,87.28
2022-08-26T17:13:01.610Z,87.34
2022-08-26T17:15:28.655Z,87.84
2022-08-26T17:17:56.825Z,87.22
2022-08-26T17:20:24.883Z,87.02
2022-08-26T17:22:53.775Z,86.79
2022-08-26T17:25:31.351Z,87.07
2022-08-26T17:27:58.820Z,87.16
2022-08-26T17:30:26.017Z,87.03
2022-08-26T17:32:54.044Z,86.94
2022-08-26T17:35:21.473Z,87.00
2022-08-26T17:37:48.436Z,87.15
2022-08-26T17:40:21.506Z,87.16
2022-08-26T17:42:48.708Z,87.42
2022-08-26T17:45:16.283Z,87.83
2022-08-26T17:47:43.832Z,87.89
2022-08-26T17:50:13.939Z,87.90
2022-08-26T17:52:42.089Z,87.46
2022-08-26T17:55:11.952Z,87.70
2022-08-26T17:57:40.944Z,87.88
2022-08-26T18:00:21.301Z,88.19
2022-08-26T18:02:48.100Z,88.54
2022-08-26T18:05:17.457Z,88.21
2022-08-26T18:07:44.838Z,87.91
2022-08-26T18:10:13.941Z,87.67
2022-08-26T18:12:45.169Z,87.54
2022-08-26T18:15:14.121Z,87.79
2022-08-26T18:17:41.729Z,87.96
2022-08-26T18:20:18.322Z,88.19
2022-08-26T18:22:46.876Z,87.66
2022-08-26T18:25:14.547Z,88.19
2022-08-26T18:27:41.497Z,88.31
2022-08-26T18:30:16.477Z,88.11
2022-08-26T18:32:44.247Z,88.21
2022-08-26T18:35:12.181Z,88.41
2022-08-26T18:37:39.594Z,88.27
2022-08-26T18:40:09.233Z,88.18
2022-08-26T18:42:36.358Z,88.33
2022-08-26T18:45:05.103Z,88.35
2022-08-26T18:47:32.860Z,88.53
2022-08-26T18:50:00.810Z,88.56
2022-08-26T18:52:27.692Z,88.45
2022-08-26T18:54:54.958Z,88.60
2022-08-26T18:57:21.643Z,88.67
2022-08-26T18:59:48.385Z,88.78
2022-08-26T19:02:15.242Z,88.68
2022-08-26T19:04:42.592Z,89.00
2022-08-26T19:07:09.825Z,89.24
2022-08-26T19:09:36.806Z,88.86
2022-08-26T19:12:05.265Z,88.79
2022-08-26T19:14:34.975Z,88.92
2022-08-26T19:17:02.557Z,88.96
2022-08-26T19:19:29.729Z,89.02
2022-08-26T19:21:56.602Z,89.20
2022-08-26T19:24:26.028Z,89.44
2022-08-26T19:26:58.347Z,89.73
2022-08-26T19:29:27.838Z,89.27
2022-08-26T19:31:55.017Z,89.12
2022-08-26T19:34:21.833Z,89.09
2022-08-26T19:36:49.236Z,89.32
2022-08-26T19:39:16.603Z,89.88
2022-08-26T19:41:44.117Z,89.70
2022-08-26T19:44:35.951Z,89.37
2022-08-26T19:47:03.717Z,89.56
2022-08-26T19:49:30.982Z,89.83
2022-08-26T19:51:58.128Z,89.94
2022-08-26T19:54:25.457Z,89.92
2022-08-26T19:56:52.237Z,89.86
2022-08-26T19:59:19.019Z,89.57
2022-08-26T20:01:46.099Z,89.83
2022-08-26T20:04:30.876Z,89.62
2022-08-26T20:07:00.294Z,90.25
2022-08-26T20:09:28.720Z,89.94
2022-08-26T20:11:56.732Z,89.69
2022-08-26T20:14:24.387Z,89.70
2022-08-26T20:16:51.479Z,89.95
2022-08-26T20:19:37.726Z,89.79
2022-08-26T20:22:05.376Z,90.02
2022-08-26T20:24:32.716Z,89.99
2022-08-26T20:27:02.312Z,89.70
2022-08-26T20:29:31.208Z,89.79
2022-08-26T20:31:58.851Z,89.50
2022-08-26T20:34:26.254Z,89.64
2022-08-26T20:36:53.172Z,89.83
2022-08-26T20:39:21.394Z,89.73
2022-08-26T20:41:48.634Z,89.62
2022-08-26T20:44:17.618Z,89.79
2022-08-26T20:46:45.294Z,89.63
2022-08-26T20:49:13.264Z,89.86
2022-08-26T20:51:40.695Z,89.98
2022-08-26T20:54:07.937Z,89.77
2022-08-26T20:56:35.667Z,89.76
2022-08-26T20:59:04.034Z,89.79
2022-08-26T21:01:34.765Z,89.89
2022-08-26T21:04:05.016Z,89.74
2022-08-26T21:06:35.472Z,89.98
2022-08-26T21:09:04.815Z,89.92
2022-08-26T21:11:32.086Z,90.14
2022-08-26T21:14:07.039Z,89.92
2022-08-26T21:16:44.140Z,90.24
2022-08-26T21:19:13.327Z,90.25
2022-08-26T21:21:41.011Z,90.50
2022-08-26T21:24:08.416Z,90.39
2022-08-26T21:26:35.464Z,90.38
2022-08-26T21:29:03.118Z,90.44
2022-08-26T21:31:31.897Z,90.31
2022-08-26T21:33:59.125Z,90.50
2022-08-26T21:36:26.450Z,90.31
2022-08-26T21:38:56.212Z,90.15
2022-08-26T21:41:23.016Z,89.95
2022-08-26T21:43:51.561Z,89.70
2022-08-26T21:46:21.991Z,89.75
2022-08-26T21:49:10.145Z,90.15
2022-08-26T21:51:41.359Z,90.02
2022-08-26T21:54:11.079Z,89.84
2022-08-26T21:56:40.596Z,89.88
2022-08-26T21:59:08.536Z,90.05
2022-08-26T22:01:36.132Z,89.83
2022-08-26T22:04:05.123Z,90.05
2022-08-26T22:06:34.797Z,90.34
2022-08-26T22:09:01.856Z,89.99
2022-08-26T22:11:28.739Z,89.92
2022-08-26T22:13:56.817Z,89.96
2022-08-26T22:16:24.422Z,90.22
2022-08-26T22:18:51.509Z,89.96
2022-08-26T22:21:20.668Z,89.71
2022-08-26T22:23:47.832Z,89.79
2022-08-26T22:26:25.307Z,90.31
2022-08-26T22:28:58.556Z,90.01
2022-08-26T22:31:37.673Z,90.41
2022-08-26T22:34:07.739Z,90.37
2022-08-26T22:36:35.529Z,90.13
2022-08-26T22:39:06.667Z,90.00
2022-08-26T22:41:37.235Z,89.99
2022-08-26T22:44:04.185Z,89.85
2022-08-26T22:46:31.703Z,89.85
2022-08-26T22:48:58.505Z,89.78
2022-08-26T22:51:25.216Z,89.90
2022-08-26T22:53:51.993Z,90.24
2022-08-26T22:56:19.085Z,89.95
2022-08-26T22:58:45.991Z,89.94
2022-08-26T23:01:13.606Z,89.48
2022-08-26T23:03:40.490Z,89.68
2022-08-26T23:06:11.998Z,89.51
2022-08-26T23:08:39.825Z,89.59
2022-08-26T23:11:11.465Z,89.83
2022-08-26T23:13:38.811Z,89.76
2022-08-26T23:16:09.435Z,89.58
2022-08-26T23:18:36.624Z,89.79
2022-08-26T23:21:03.421Z,89.57
2022-08-26T23:23:31.126Z,89.76
2022-08-26T23:25:58.430Z,89.81
2022-08-26T23:28:26.331Z,89.89
2022-08-26T23:30:53.998Z,89.84
2022-08-26T23:33:21.357Z,89.93
2022-08-26T23:35:48.278Z,90.08
2022-08-26T23:38:16.688Z,90.00
2022-08-26T23:40:43.544Z,90.12
2022-08-26T23:43:18.511Z,90.16
2022-08-26T23:45:45.607Z,89.86
2022-08-26T23:48:12.638Z,89.57
2022-08-26T23:50:58.087Z,89.59
2022-08-26T23:53:24.992Z,89.94
2022-08-26T23:55:52.956Z,89.83
2022-08-26T23:58:21.203Z,89.83
